^^
Station Historical Data
Daily Summary for January 15, 2020 Units:  Metric    English   Both
« Previous Day
Next Day »
Daily Weekly Monthly Yearly Custom
  High: Low: Average:
Temperature: -21.8 °C -27.2 °C -24.4 °C
Dew Point: -24.4 °C -30.1 °C -27.6 °C
Humidity: 80% 67% 75%
Wind Speed: 32.2km/h 0km/h 12.9km/h
Wind Gust: 35.4km/h - -
Wind- - WNW
Pressure: 1043.2 hPa 1026.6 hPa -
Precipitation: 0 mm    
Historical Graphs
 
 
Tabular Data for January 15, 2020
Time Temperature Dew Point Pressure Wind Wind Speed Wind Gust Humidity Rainfall Rate (Hourly) solar Conditions
00:00 -21.8 °C -24.7 °C 1027.3 hPa NNW 16.1 km/h 22.5 km/h 77% 0 mm 0.00 W/m2
00:05 -21.8 °C -24.8 °C 1027.3 hPa NW 17.7 km/h 22.5 km/h 77% 0 mm 0.00 W/m2
00:10 -21.9 °C -24.8 °C 1027.7 hPa NW 17.7 km/h 22.5 km/h 77% 0 mm 0.00 W/m2
00:15 -21.9 °C -24.9 °C 1027.3 hPa NW 20.9 km/h 22.5 km/h 77% 0 mm 0.00 W/m2
00:20 -21.9 °C -24.7 °C 1027.3 hPa NW 16.1 km/h 22.5 km/h 78% 0 mm 0.00 W/m2
00:25 -21.9 °C -24.7 °C 1027 hPa NNW 16.1 km/h 24.1 km/h 78% 0 mm 0.00 W/m2
00:30 -21.9 °C -24.7 °C 1027.3 hPa NNW 9.7 km/h 24.1 km/h 78% 0 mm 0.00 W/m2
00:35 -21.9 °C -24.7 °C 1027 hPa NW 17.7 km/h 25.7 km/h 78% 0 mm 0.00 W/m2
00:40 -21.9 °C -24.7 °C 1027.3 hPa NW 17.7 km/h 25.7 km/h 78% 0 mm 0.00 W/m2
00:45 -21.9 °C -24.9 °C 1027.3 hPa NNW 16.1 km/h 25.7 km/h 77% 0 mm 0.00 W/m2
00:50 -21.9 °C -24.7 °C 1027.3 hPa NNW 17.7 km/h 25.7 km/h 78% 0 mm 0.00 W/m2
00:55 -21.9 °C -24.6 °C 1027.7 hPa NNW 17.7 km/h 24.1 km/h 79% 0 mm 0.00 W/m2
01:00 -21.8 °C -24.5 °C 1027.7 hPa NW 9.7 km/h 24.1 km/h 79% 0 mm 0.00 W/m2
01:05 -21.9 °C -24.6 °C 1027.7 hPa NNW 16.1 km/h 20.9 km/h 79% 0 mm 0.00 W/m2
01:10 -21.9 °C -24.6 °C 1027.7 hPa NNW 16.1 km/h 20.9 km/h 79% 0 mm 0.00 W/m2
01:15 -21.9 °C -24.4 °C 1027.3 hPa NNW 20.9 km/h 22.5 km/h 80% 0 mm 0.00 W/m2
01:20 -22 °C -24.7 °C 1027.3 hPa NW 17.7 km/h 24.1 km/h 79% 0 mm 0.00 W/m2
01:25 -22.1 °C -24.7 °C 1027.3 hPa NW 14.5 km/h 24.1 km/h 79% 0 mm 0.00 W/m2
01:30 -22.1 °C -24.6 °C 1027.3 hPa NW 16.1 km/h 24.1 km/h 80% 0 mm 0.00 W/m2
01:35 -22.1 °C -24.6 °C 1027 hPa NNW 19.3 km/h 24.1 km/h 80% 0 mm 0.00 W/m2
01:40 -22.2 °C -24.7 °C 1026.6 hPa North 9.7 km/h 24.1 km/h 80% 0 mm 0.00 W/m2
01:45 -22.1 °C -24.6 °C 1027.3 hPa WNW 11.3 km/h 24.1 km/h 80% 0 mm 0.00 W/m2
01:50 -22.2 °C -24.7 °C 1027.7 hPa NW 14.5 km/h 24.1 km/h 80% 0 mm 0.00 W/m2
01:55 -22.2 °C -24.7 °C 1027.7 hPa NNW 9.7 km/h 24.1 km/h 80% 0 mm 0.00 W/m2
02:00 -22.2 °C -24.7 °C 1027.3 hPa NNW 8 km/h 24.1 km/h 80% 0 mm 0.00 W/m2
02:05 -22.1 °C -24.6 °C 1026.6 hPa NNW 25.7 km/h 29 km/h 80% 0 mm 0.00 W/m2
02:10 -22.1 °C -24.7 °C 1027.3 hPa NNW 9.7 km/h 29 km/h 79% 0 mm 0.00 W/m2
02:15 -22.1 °C -24.8 °C 1027.7 hPa NW 16.1 km/h 29 km/h 79% 0 mm 0.00 W/m2
02:20 -22.1 °C -24.7 °C 1027.7 hPa NW 22.5 km/h 25.7 km/h 79% 0 mm 0.00 W/m2
02:25 -22.1 °C -24.7 °C 1027.7 hPa NW 19.3 km/h 25.7 km/h 79% 0 mm 0.00 W/m2
02:45 -21.9 °C -24.7 °C 1028 hPa NNW 19.3 km/h 27.4 km/h 78% 0 mm 0.00 W/m2
02:50 -21.9 °C -24.7 °C 1028.3 hPa NNW 19.3 km/h 27.4 km/h 78% 0 mm 0.00 W/m2
02:55 -21.9 °C -24.7 °C 1028.7 hPa NNW 16.1 km/h 24.1 km/h 78% 0 mm 0.00 W/m2
03:00 -21.9 °C -24.7 °C 1028.3 hPa NNW 14.5 km/h 24.1 km/h 78% 0 mm 0.00 W/m2
03:05 -21.9 °C -24.7 °C 1028.3 hPa NNW 19.3 km/h 27.4 km/h 78% 0 mm 0.00 W/m2
03:10 -21.9 °C -24.7 °C 1028.3 hPa NNW 16.1 km/h 27.4 km/h 78% 0 mm 0.00 W/m2
03:15 -21.9 °C -24.7 °C 1028 hPa NW 19.3 km/h 27.4 km/h 78% 0 mm 0.00 W/m2
03:20 -21.9 °C -24.7 °C 1027.7 hPa North 24.1 km/h 27.4 km/h 78% 0 mm 0.00 W/m2
03:25 -21.8 °C -24.6 °C 1028 hPa NNW 24.1 km/h 29 km/h 78% 0 mm 0.00 W/m2
03:30 -21.9 °C -24.7 °C 1028.3 hPa NW 24.1 km/h 29 km/h 78% 0 mm 0.00 W/m2
03:35 -21.9 °C -24.7 °C 1028.3 hPa NNW 14.5 km/h 29 km/h 78% 0 mm 0.00 W/m2
03:40 -22 °C -24.8 °C 1028.3 hPa NNW 12.9 km/h 29 km/h 78% 0 mm 0.00 W/m2
03:45 -22.1 °C -25 °C 1028.3 hPa NNW 16.1 km/h 25.7 km/h 77% 0 mm 0.00 W/m2
03:50 -22.1 °C -25.1 °C 1028.3 hPa NW 12.9 km/h 25.7 km/h 77% 0 mm 0.00 W/m2
03:55 -22.2 °C -25.1 °C 1028.7 hPa NNW 19.3 km/h 25.7 km/h 77% 0 mm 0.00 W/m2
04:00 -22.3 °C -25.2 °C 1028.3 hPa NW 17.7 km/h 25.7 km/h 77% 0 mm 0.00 W/m2
04:05 -22.3 °C -25.3 °C 1028.7 hPa NW 17.7 km/h 24.1 km/h 77% 0 mm 0.00 W/m2
04:10 -22.4 °C -25.4 °C 1028.7 hPa NW 16.1 km/h 24.1 km/h 77% 0 mm 0.00 W/m2
04:15 -22.6 °C -25.5 °C 1028.7 hPa NNW 19.3 km/h 20.9 km/h 77% 0 mm 0.00 W/m2
04:20 -22.7 °C -25.7 °C 1028.7 hPa NW 8 km/h 20.9 km/h 77% 0 mm 0.00 W/m2
04:25 -22.8 °C -25.8 °C 1029 hPa WNW 17.7 km/h 19.3 km/h 77% 0 mm 0.00 W/m2
04:30 -22.9 °C -25.8 °C 1029 hPa NW 12.9 km/h 19.3 km/h 77% 0 mm 0.00 W/m2
04:35 -22.9 °C -25.7 °C 1029.7 hPa WNW 11.3 km/h 19.3 km/h 78% 0 mm 0.00 W/m2
04:40 -22.9 °C -25.7 °C 1029.7 hPa West 14.5 km/h 19.3 km/h 78% 0 mm 0.00 W/m2
04:45 -23.1 °C -25.8 °C 1029.7 hPa WNW 14.5 km/h 17.7 km/h 78% 0 mm 0.00 W/m2
04:50 -23.1 °C -25.9 °C 1029.7 hPa NW 11.3 km/h 19.3 km/h 78% 0 mm 0.00 W/m2
04:55 -23.1 °C -25.9 °C 1029.3 hPa NNW 17.7 km/h 19.3 km/h 78% 0 mm 0.00 W/m2
05:00 -23.2 °C -26 °C 1029 hPa NNW 14.5 km/h 19.3 km/h 78% 0 mm 0.00 W/m2
05:05 -23.3 °C -25.9 °C 1029.3 hPa WNW 6.4 km/h 19.3 km/h 79% 0 mm 0.00 W/m2
05:10 -23.3 °C -26.1 °C 1029.3 hPa NW 12.9 km/h 17.7 km/h 78% 0 mm 0.00 W/m2
05:15 -23.5 °C -26.3 °C 1029.3 hPa NW 14.5 km/h 17.7 km/h 78% 0 mm 0.00 W/m2
05:20 -23.4 °C -26.1 °C 1029.7 hPa NW 11.3 km/h 17.7 km/h 79% 0 mm 0.00 W/m2
05:25 -23.5 °C -26.3 °C 1029.7 hPa NW 6.4 km/h 14.5 km/h 78% 0 mm 0.00 W/m2
05:30 -23.7 °C -26.4 °C 1029.7 hPa WNW 6.4 km/h 17.7 km/h 78% 0 mm 0.00 W/m2
05:35 -23.8 °C -26.6 °C 1029.7 hPa WNW 11.3 km/h 17.7 km/h 78% 0 mm 0.00 W/m2
05:40 -23.9 °C -26.6 °C 1030 hPa WNW 11.3 km/h 12.9 km/h 79% 0 mm 0.00 W/m2
05:45 -24.1 °C -26.7 °C 1030 hPa West 4.8 km/h 12.9 km/h 79% 0 mm 0.00 W/m2
05:50 -24.4 °C -27.1 °C 1030.4 hPa West 4.8 km/h 12.9 km/h 78% 0 mm 0.00 W/m2
05:55 -24.7 °C -27.4 °C 1030.4 hPa West 4.8 km/h 12.9 km/h 78% 0 mm 0.00 W/m2
06:00 -24.7 °C -27.3 °C 1030.4 hPa WNW 8 km/h 11.3 km/h 79% 0 mm 0.00 W/m2
06:05 -24.3 °C -26.8 °C 1030.4 hPa WNW 6.4 km/h 12.9 km/h 80% 0 mm 0.00 W/m2
06:10 -24.3 °C -26.9 °C 1030.4 hPa WNW 6.4 km/h 12.9 km/h 79% 0 mm 0.00 W/m2
06:15 -24.3 °C -26.9 °C 1030.4 hPa NW 4.8 km/h 12.9 km/h 79% 0 mm 0.00 W/m2
06:20 -24.2 °C -26.8 °C 1030.4 hPa WNW 6.4 km/h 12.9 km/h 79% 0 mm 0.00 W/m2
06:25 -24.4 °C -27.1 °C 1030.4 hPa WNW 6.4 km/h 11.3 km/h 79% 0 mm 0.00 W/m2
06:30 -24.7 °C -27.3 °C 1030.4 hPa WNW 4.8 km/h 11.3 km/h 79% 0 mm 0.00 W/m2
06:35 -24.8 °C -27.4 °C 1030.4 hPa WNW 8 km/h 9.7 km/h 79% 0 mm 0.00 W/m2
06:40 -24.9 °C -27.5 °C 1030.7 hPa WNW 6.4 km/h 12.9 km/h 79% 0 mm 0.00 W/m2
06:45 -24.9 °C -27.5 °C 1030.4 hPa WNW 6.4 km/h 12.9 km/h 79% 0 mm 0.00 W/m2
06:50 -24.7 °C -27.2 °C 1030.4 hPa NW 8 km/h 14.5 km/h 80% 0 mm 0.00 W/m2
06:55 -24.7 °C -27.3 °C 1030.4 hPa NW 3.2 km/h 14.5 km/h 79% 0 mm 0.00 W/m2
07:00 -24.8 °C -27.4 °C 1030.7 hPa NW 6.4 km/h 14.5 km/h 79% 0 mm 0.00 W/m2
07:05 -24.8 °C -27.4 °C 1030.7 hPa NW 3.2 km/h 14.5 km/h 79% 0 mm 0.00 W/m2
07:10 -24.8 °C -27.2 °C 1030.7 hPa NW 6.4 km/h 9.7 km/h 80% 0 mm 0.00 W/m2
07:15 -24.8 °C -27.3 °C 1030.7 hPa WNW 4.8 km/h 9.7 km/h 80% 0 mm 0.00 W/m2
07:20 -25 °C -27.6 °C 1031 hPa West 4.8 km/h 9.7 km/h 79% 0 mm 0.00 W/m2
07:25 -25.2 °C -27.8 °C 1031 hPa WNW 4.8 km/h 9.7 km/h 79% 0 mm 0.00 W/m2
07:30 -25.4 °C -28.2 °C 1031 hPa West 6.4 km/h 9.7 km/h 78% 0 mm 0.00 W/m2
07:35 -25.8 °C -28.5 °C 1031.4 hPa West 6.4 km/h 9.7 km/h 78% 0 mm 0.00 W/m2
07:40 -25.9 °C -28.5 °C 1031.4 hPa WNW 4.8 km/h 9.7 km/h 79% 0 mm 0.00 W/m2
07:45 -25.9 °C -28.3 °C 1031.4 hPa WNW 4.8 km/h 9.7 km/h 80% 0 mm 0.00 W/m2
07:50 -25.7 °C -28.2 °C 1031 hPa NW 4.8 km/h 9.7 km/h 80% 0 mm 0.00 W/m2
07:55 -25.7 °C -28.2 °C 1031 hPa NW 6.4 km/h 9.7 km/h 80% 0 mm 0.00 W/m2
08:00 -25.8 °C -28.2 °C 1031.4 hPa WNW 6.4 km/h 9.7 km/h 80% 0 mm 0.00 W/m2
08:05 -25.7 °C -28.2 °C 1031.7 hPa West 4.8 km/h 9.7 km/h 80% 0 mm 0.00 W/m2
08:10 -25.9 °C -28.4 °C 1032.1 hPa WNW 6.4 km/h 9.7 km/h 79% 0 mm 0.00 W/m2
08:15 -26.2 °C -28.9 °C 1032.1 hPa WNW 3.2 km/h 9.7 km/h 78% 0 mm 0.00 W/m2
08:20 -26.3 °C -28.9 °C 1032.1 hPa WNW 6.4 km/h 8 km/h 79% 0 mm 5.00 W/m2
08:25 -26.1 °C -28.6 °C 1032.4 hPa WNW 6.4 km/h 11.3 km/h 80% 0 mm 7.00 W/m2
08:30 -25.7 °C -28.2 °C 1032.1 hPa NW 6.4 km/h 12.9 km/h 80% 0 mm 9.00 W/m2
08:35 -25.7 °C -28.3 °C 1032.1 hPa NW 8 km/h 12.9 km/h 79% 0 mm 12.00 W/m2
08:40 -25.7 °C -28.1 °C 1032.4 hPa NW 9.7 km/h 12.9 km/h 80% 0 mm 16.00 W/m2
08:45 -25.8 °C -28.3 °C 1032.4 hPa NNW 4.8 km/h 12.9 km/h 79% 0 mm 18.00 W/m2
08:50 -25.9 °C -28.4 °C 1032.7 hPa NW 6.4 km/h 12.9 km/h 79% 0 mm 19.00 W/m2
08:55 -25.9 °C -28.4 °C 1033.1 hPa WNW 8 km/h 12.9 km/h 79% 0 mm 23.00 W/m2
09:00 -25.9 °C -28.4 °C 1033.4 hPa WNW 8 km/h 11.3 km/h 79% 0 mm 28.00 W/m2
09:05 -25.8 °C -28.3 °C 1033.4 hPa WNW 9.7 km/h 12.9 km/h 79% 0 mm 37.00 W/m2
09:10 -25.6 °C -28.2 °C 1033.1 hPa NW 4.8 km/h 12.9 km/h 79% 0 mm 42.00 W/m2
09:15 -25.7 °C -28.2 °C 1033.4 hPa NW 6.4 km/h 12.9 km/h 79% 0 mm 58.00 W/m2
09:20 -25.6 °C -28.2 °C 1033.1 hPa NW 4.8 km/h 11.3 km/h 79% 0 mm 62.00 W/m2
09:25 -25.6 °C -28.2 °C 1033.7 hPa WNW 3.2 km/h 9.7 km/h 79% 0 mm 76.00 W/m2
09:30 -25.6 °C -28.3 °C 1033.7 hPa North 6.4 km/h 11.3 km/h 78% 0 mm 83.00 W/m2
09:35 -25.2 °C -27.8 °C 1033.7 hPa NW 12.9 km/h 16.1 km/h 79% 0 mm 95.00 W/m2
09:40 -25 °C -27.7 °C 1033.7 hPa NW 12.9 km/h 20.9 km/h 78% 0 mm 111.00 W/m2
09:45 -24.9 °C -27.8 °C 1033.7 hPa WNW 14.5 km/h 24.1 km/h 77% 0 mm 130.00 W/m2
09:50 -24.8 °C -27.7 °C 1033.7 hPa WNW 14.5 km/h 24.1 km/h 77% 0 mm 153.00 W/m2
09:55 -24.8 °C -27.8 °C 1034.1 hPa WNW 14.5 km/h 24.1 km/h 76% 0 mm 181.00 W/m2
10:00 -24.7 °C -27.7 °C 1034.1 hPa WNW 14.5 km/h 24.1 km/h 76% 0 mm 213.00 W/m2
10:05 -24.6 °C -27.6 °C 1034.1 hPa WNW 14.5 km/h 24.1 km/h 76% 0 mm 230.00 W/m2
10:10 -24.4 °C -27.4 °C 1034.1 hPa WNW 14.5 km/h 24.1 km/h 76% 0 mm 232.00 W/m2
10:15 -24.4 °C -27.4 °C 1034.4 hPa WNW 14.5 km/h 24.1 km/h 76% 0 mm 241.00 W/m2
10:20 -24.4 °C -27.6 °C 1034.4 hPa WNW 14.5 km/h 24.1 km/h 75% 0 mm 258.00 W/m2
10:25 -24.4 °C -27.6 °C 1034.4 hPa WNW 14.5 km/h 24.1 km/h 75% 0 mm 251.00 W/m2
10:30 -24.5 °C -27.7 °C 1034.4 hPa WNW 14.5 km/h 24.1 km/h 75% 0 mm 216.00 W/m2
10:35 -24.5 °C -27.7 °C 1034.4 hPa WNW 14.5 km/h 24.1 km/h 75% 0 mm 241.00 W/m2
10:40 -24.6 °C -27.7 °C 1034.8 hPa WNW 14.5 km/h 24.1 km/h 75% 0 mm 269.00 W/m2
10:45 -24.7 °C -27.9 °C 1034.8 hPa WNW 14.5 km/h 24.1 km/h 75% 0 mm 193.00 W/m2
10:50 -24.9 °C -28.1 °C 1034.4 hPa WNW 14.5 km/h 24.1 km/h 75% 0 mm 225.00 W/m2
10:55 -24.9 °C -28.2 °C 1034.4 hPa WNW 14.5 km/h 24.1 km/h 74% 0 mm 279.00 W/m2
11:00 -25 °C -28.3 °C 1034.8 hPa WNW 14.5 km/h 24.1 km/h 74% 0 mm 229.00 W/m2
11:05 -24.9 °C -28.2 °C 1034.8 hPa NW 24.1 km/h 30.6 km/h 74% 0 mm 308.00 W/m2
11:10 -24.8 °C -28.1 °C 1035.1 hPa NW 12.9 km/h 30.6 km/h 74% 0 mm 322.00 W/m2
11:15 -24.7 °C -28 °C 1035.1 hPa NW 19.3 km/h 30.6 km/h 74% 0 mm 320.00 W/m2
11:20 -24.8 °C -28.2 °C 1035.1 hPa NNW 19.3 km/h 30.6 km/h 73% 0 mm 323.00 W/m2
11:25 -24.8 °C -28.3 °C 1035.1 hPa NW 19.3 km/h 32.2 km/h 73% 0 mm 330.00 W/m2
11:30 -24.8 °C -28.1 °C 1035.1 hPa NW 19.3 km/h 32.2 km/h 74% 0 mm 336.00 W/m2
11:35 -24.8 °C -28.3 °C 1035.1 hPa NW 24.1 km/h 32.2 km/h 73% 0 mm 343.00 W/m2
11:40 -24.9 °C -28.3 °C 1035.1 hPa NW 27.4 km/h 35.4 km/h 73% 0 mm 346.00 W/m2
11:45 -24.8 °C -28.2 °C 1035.4 hPa NW 30.6 km/h 35.4 km/h 73% 0 mm 353.00 W/m2
11:50 -24.7 °C -28.2 °C 1035.4 hPa NW 17.7 km/h 35.4 km/h 73% 0 mm 359.00 W/m2
11:55 -24.7 °C -28.2 °C 1035.8 hPa WNW 32.2 km/h 35.4 km/h 73% 0 mm 364.00 W/m2
12:00 -24.7 °C -28.3 °C 1035.4 hPa NW 22.5 km/h 35.4 km/h 72% 0 mm 366.00 W/m2
12:05 -24.7 °C -28.4 °C 1035.8 hPa WNW 24.1 km/h 35.4 km/h 71% 0 mm 371.00 W/m2
12:10 -24.6 °C -28.3 °C 1035.8 hPa WNW 19.3 km/h 30.6 km/h 71% 0 mm 376.00 W/m2
12:15 -24.5 °C -28.3 °C 1035.8 hPa NW 16.1 km/h 30.6 km/h 71% 0 mm 380.00 W/m2
12:20 -24.4 °C -28.2 °C 1035.8 hPa WNW 19.3 km/h 29 km/h 71% 0 mm 381.00 W/m2
12:25 -24.5 °C -28.3 °C 1035.8 hPa WNW 16.1 km/h 29 km/h 71% 0 mm 383.00 W/m2
12:30 -24.4 °C -28.2 °C 1035.4 hPa NW 27.4 km/h 29 km/h 71% 0 mm 387.00 W/m2
12:35 -24.4 °C -28.2 °C 1035.8 hPa NW 19.3 km/h 29 km/h 71% 0 mm 388.00 W/m2
12:40 -24.6 °C -28.3 °C 1035.4 hPa WNW 25.7 km/h 29 km/h 71% 0 mm 390.00 W/m2
12:45 -24.6 °C -28.3 °C 1035.4 hPa NW 16.1 km/h 29 km/h 71% 0 mm 392.00 W/m2
12:50 -24.4 °C -28.2 °C 1035.8 hPa West 20.9 km/h 29 km/h 71% 0 mm 392.00 W/m2
12:55 -24.4 °C -28.2 °C 1035.8 hPa NW 17.7 km/h 35.4 km/h 71% 0 mm 390.00 W/m2
13:00 -24.3 °C -28.1 °C 1035.8 hPa WNW 25.7 km/h 35.4 km/h 71% 0 mm 392.00 W/m2
13:05 -24.3 °C -28.2 °C 1035.8 hPa WNW 19.3 km/h 32.2 km/h 70% 0 mm 392.00 W/m2
13:10 -24.3 °C -28.2 °C 1035.8 hPa WNW 22.5 km/h 32.2 km/h 70% 0 mm 390.00 W/m2
13:15 -24.1 °C -27.9 °C 1036.1 hPa WNW 20.9 km/h 30.6 km/h 71% 0 mm 388.00 W/m2
13:20 -24.2 °C -28.1 °C 1036.1 hPa West 17.7 km/h 30.6 km/h 70% 0 mm 387.00 W/m2
13:25 -24.2 °C -28.1 °C 1036.1 hPa NW 20.9 km/h 29 km/h 70% 0 mm 387.00 W/m2
13:30 -23.9 °C -27.9 °C 1036.1 hPa WNW 19.3 km/h 30.6 km/h 70% 0 mm 385.00 W/m2
13:35 -23.8 °C -27.6 °C 1036.1 hPa West 25.7 km/h 30.6 km/h 71% 0 mm 381.00 W/m2
13:40 -23.9 °C -28 °C 1036.1 hPa WNW 29 km/h 32.2 km/h 69% 0 mm 378.00 W/m2
13:45 -23.9 °C -28 °C 1036.1 hPa NW 16.1 km/h 32.2 km/h 69% 0 mm 376.00 W/m2
13:50 -23.8 °C -27.8 °C 1036.1 hPa WNW 22.5 km/h 32.2 km/h 70% 0 mm 378.00 W/m2
13:55 -23.7 °C -27.6 °C 1036.1 hPa WNW 27.4 km/h 33.8 km/h 70% 0 mm 392.00 W/m2
14:00 -23.8 °C -27.7 °C 1036.1 hPa WNW 25.7 km/h 35.4 km/h 70% 0 mm 415.00 W/m2
14:05 -23.9 °C -27.9 °C 1036.5 hPa WNW 29 km/h 35.4 km/h 70% 0 mm 204.00 W/m2
14:10 -23.7 °C -27.7 °C 1036.5 hPa WNW 29 km/h 35.4 km/h 70% 0 mm 417.00 W/m2
14:15 -23.6 °C -27.5 °C 1036.8 hPa NW 19.3 km/h 35.4 km/h 70% 0 mm 364.00 W/m2
14:20 -23.5 °C -27.4 °C 1036.8 hPa WNW 25.7 km/h 35.4 km/h 70% 0 mm 346.00 W/m2
14:25 -23.6 °C -27.7 °C 1036.8 hPa WNW 25.7 km/h 35.4 km/h 69% 0 mm 338.00 W/m2
14:30 -23.6 °C -27.7 °C 1036.8 hPa WNW 25.7 km/h 35.4 km/h 69% 0 mm 329.00 W/m2
14:35 -23.6 °C -27.7 °C 1036.8 hPa WNW 25.7 km/h 35.4 km/h 69% 0 mm 322.00 W/m2
14:40 -23.5 °C -27.8 °C 1036.8 hPa WNW 25.7 km/h 35.4 km/h 68% 0 mm 315.00 W/m2
14:45 -23.6 °C -27.8 °C 1036.8 hPa WNW 25.7 km/h 35.4 km/h 68% 0 mm 315.00 W/m2
14:50 -23.6 °C -27.8 °C 1036.8 hPa WNW 25.7 km/h 35.4 km/h 68% 0 mm 250.00 W/m2
14:55 -23.6 °C -27.9 °C 1037.1 hPa WNW 25.7 km/h 35.4 km/h 67% 0 mm 302.00 W/m2
15:00 -23.5 °C -27.9 °C 1037.5 hPa WNW 25.7 km/h 35.4 km/h 67% 0 mm 295.00 W/m2
15:05 -23.5 °C -27.8 °C 1037.5 hPa WNW 25.7 km/h 35.4 km/h 68% 0 mm 285.00 W/m2
15:10 -23.4 °C -27.5 °C 1037.5 hPa WNW 25.7 km/h 35.4 km/h 69% 0 mm 322.00 W/m2
15:15 -23.2 °C -27.3 °C 1037.5 hPa WNW 25.7 km/h 35.4 km/h 69% 0 mm 209.00 W/m2
15:20 -23.3 °C -27.6 °C 1037.8 hPa WNW 25.7 km/h 35.4 km/h 68% 0 mm 237.00 W/m2
15:25 -23.3 °C -27.6 °C 1037.8 hPa WNW 25.7 km/h 35.4 km/h 68% 0 mm 221.00 W/m2
15:30 -23.4 °C -27.8 °C 1038.1 hPa WNW 25.7 km/h 35.4 km/h 67% 0 mm 209.00 W/m2
15:35 -23.3 °C -27.6 °C 1038.1 hPa WNW 25.7 km/h 35.4 km/h 68% 0 mm 193.00 W/m2
15:40 -23.3 °C -27.6 °C 1038.1 hPa WNW 25.7 km/h 35.4 km/h 68% 0 mm 181.00 W/m2
15:45 -23.3 °C -27.6 °C 1038.1 hPa WNW 25.7 km/h 35.4 km/h 68% 0 mm 167.00 W/m2
15:50 -23.3 °C -27.6 °C 1038.5 hPa WNW 25.7 km/h 35.4 km/h 68% 0 mm 153.00 W/m2
15:55 -23.3 °C -27.6 °C 1038.5 hPa WNW 25.7 km/h 35.4 km/h 68% 0 mm 142.00 W/m2
16:00 -23.3 °C -27.4 °C 1038.5 hPa WNW 25.7 km/h 35.4 km/h 69% 0 mm 127.00 W/m2
16:05 -23.3 °C -27.3 °C 1038.5 hPa WNW 25.7 km/h 35.4 km/h 70% 0 mm 114.00 W/m2
16:10 -23.4 °C -27.3 °C 1038.8 hPa WNW 25.7 km/h 35.4 km/h 70% 0 mm 107.00 W/m2
16:15 -23.4 °C -27.4 °C 1038.8 hPa WNW 25.7 km/h 35.4 km/h 70% 0 mm 91.00 W/m2
16:20 -23.4 °C -27.4 °C 1038.8 hPa WNW 25.7 km/h 35.4 km/h 70% 0 mm 86.00 W/m2
16:25 -23.5 °C -27.4 °C 1038.8 hPa WNW 25.7 km/h 35.4 km/h 70% 0 mm 81.00 W/m2
16:30 -23.5 °C -27.3 °C 1038.8 hPa WNW 25.7 km/h 35.4 km/h 71% 0 mm 60.00 W/m2
16:35 -23.6 °C -27.5 °C 1038.8 hPa WNW 25.7 km/h 35.4 km/h 70% 0 mm 49.00 W/m2
16:40 -23.6 °C -27.6 °C 1039.2 hPa WNW 25.7 km/h 35.4 km/h 70% 0 mm 40.00 W/m2
16:45 -23.6 °C -27.6 °C 1039.2 hPa WNW 25.7 km/h 35.4 km/h 70% 0 mm 39.00 W/m2
16:50 -23.7 °C -27.6 °C 1039.5 hPa WNW 25.7 km/h 35.4 km/h 70% 0 mm 28.00 W/m2
16:55 -23.7 °C -27.7 °C 1039.5 hPa WNW 25.7 km/h 35.4 km/h 70% 0 mm 23.00 W/m2
17:00 -23.8 °C -27.8 °C 1039.5 hPa WNW 25.7 km/h 35.4 km/h 70% 0 mm 19.00 W/m2
17:05 -23.9 °C -27.7 °C 1039.8 hPa WNW 16.1 km/h 20.9 km/h 71% 0 mm 16.00 W/m2
17:10 -24 °C -27.8 °C 1039.8 hPa WNW 12.9 km/h 20.9 km/h 71% 0 mm 14.00 W/m2
17:15 -24.2 °C -27.9 °C 1039.8 hPa WNW 6.4 km/h 16.1 km/h 71% 0 mm 11.00 W/m2
17:20 -24.3 °C -28.1 °C 1039.8 hPa West 12.9 km/h 19.3 km/h 71% 0 mm 9.00 W/m2
17:25 -24.4 °C -28.2 °C 1039.8 hPa NW 8 km/h 19.3 km/h 71% 0 mm 5.00 W/m2
17:30 -24.5 °C -28.3 °C 1039.8 hPa NW 6.4 km/h 16.1 km/h 71% 0 mm 0.00 W/m2
17:35 -24.6 °C -28.4 °C 1039.8 hPa WNW 14.5 km/h 16.1 km/h 71% 0 mm 0.00 W/m2
17:40 -24.7 °C -28.4 °C 1040.2 hPa WNW 9.7 km/h 16.1 km/h 71% 0 mm 0.00 W/m2
17:45 -24.7 °C -28.4 °C 1040.2 hPa WNW 6.4 km/h 16.1 km/h 71% 0 mm 0.00 W/m2
17:50 -24.8 °C -28.6 °C 1040.2 hPa WNW 8 km/h 12.9 km/h 71% 0 mm 0.00 W/m2
17:55 -25 °C -28.6 °C 1040.5 hPa WNW 6.4 km/h 12.9 km/h 72% 0 mm 0.00 W/m2
18:00 -25 °C -28.6 °C 1040.5 hPa West 9.7 km/h 12.9 km/h 72% 0 mm 0.00 W/m2
18:05 -25 °C -28.6 °C 1040.5 hPa West 6.4 km/h 12.9 km/h 72% 0 mm 0.00 W/m2
18:10 -25.1 °C -28.7 °C 1040.5 hPa West 6.4 km/h 12.9 km/h 72% 0 mm 0.00 W/m2
18:15 -25.3 °C -28.8 °C 1040.5 hPa West 11.3 km/h 12.9 km/h 72% 0 mm 0.00 W/m2
18:20 -25.4 °C -29 °C 1040.9 hPa West 6.4 km/h 12.9 km/h 72% 0 mm 0.00 W/m2
18:25 -25.4 °C -28.9 °C 1040.5 hPa West 6.4 km/h 11.3 km/h 73% 0 mm 0.00 W/m2
18:30 -25.4 °C -28.8 °C 1040.5 hPa West 6.4 km/h 11.3 km/h 73% 0 mm 0.00 W/m2
18:35 -25.3 °C -28.6 °C 1040.5 hPa West 6.4 km/h 11.3 km/h 74% 0 mm 0.00 W/m2
18:40 -25.3 °C -28.6 °C 1040.5 hPa WNW 11.3 km/h 11.3 km/h 74% 0 mm 0.00 W/m2
18:45 -25.3 °C -28.6 °C 1040.9 hPa West 9.7 km/h 11.3 km/h 74% 0 mm 0.00 W/m2
18:50 -25.3 °C -28.6 °C 1040.9 hPa West 9.7 km/h 11.3 km/h 74% 0 mm 0.00 W/m2
18:55 -25.2 °C -28.4 °C 1040.9 hPa WNW 9.7 km/h 12.9 km/h 74% 0 mm 0.00 W/m2
19:00 -25.2 °C -28.4 °C 1040.9 hPa West 11.3 km/h 12.9 km/h 74% 0 mm 0.00 W/m2
19:05 -25.2 °C -28.5 °C 1040.9 hPa West 9.7 km/h 12.9 km/h 74% 0 mm 0.00 W/m2
19:10 -25.4 °C -28.7 °C 1040.9 hPa West 6.4 km/h 12.9 km/h 74% 0 mm 0.00 W/m2
19:15 -25.6 °C -28.7 °C 1040.9 hPa West 9.7 km/h 12.9 km/h 75% 0 mm 0.00 W/m2
19:20 -25.5 °C -28.6 °C 1040.9 hPa West 9.7 km/h 12.9 km/h 75% 0 mm 0.00 W/m2
19:25 -25.7 °C -28.9 °C 1040.9 hPa West 4.8 km/h 12.9 km/h 74% 0 mm 0.00 W/m2
19:30 -25.9 °C -29 °C 1040.9 hPa WSW 6.4 km/h 11.3 km/h 75% 0 mm 0.00 W/m2
19:35 -26.1 °C -29.2 °C 1040.9 hPa WSW 4.8 km/h 11.3 km/h 75% 0 mm 0.00 W/m2
19:40 -26.2 °C -29.3 °C 1040.9 hPa West 3.2 km/h 11.3 km/h 75% 0 mm 0.00 W/m2
19:45 -26.2 °C -29.2 °C 1040.9 hPa West 3.2 km/h 9.7 km/h 76% 0 mm 0.00 W/m2
19:50 -26.2 °C -29.2 °C 1040.9 hPa WNW 6.4 km/h 9.7 km/h 76% 0 mm 0.00 W/m2
19:55 -26 °C -29.1 °C 1040.9 hPa WNW 6.4 km/h 9.7 km/h 75% 0 mm 0.00 W/m2
20:00 -25.9 °C -29.1 °C 1041.2 hPa WNW 4.8 km/h 9.7 km/h 75% 0 mm 0.00 W/m2
20:05 -25.8 °C -28.9 °C 1041.2 hPa WNW 4.8 km/h 9.7 km/h 75% 0 mm 0.00 W/m2
20:10 -25.8 °C -29.1 °C 1041.2 hPa WNW 4.8 km/h 8 km/h 74% 0 mm 0.00 W/m2
20:15 -25.9 °C -29.2 °C 1041.2 hPa WNW 4.8 km/h 8 km/h 74% 0 mm 0.00 W/m2
20:20 -26.1 °C -29.3 °C 1041.2 hPa West 4.8 km/h 8 km/h 74% 0 mm 0.00 W/m2
20:25 -26.2 °C -29.4 °C 1041.2 hPa WSW 4.8 km/h 9.7 km/h 74% 0 mm 0.00 W/m2
20:30 -26.3 °C -29.4 °C 1041.2 hPa WSW 4.8 km/h 9.7 km/h 75% 0 mm 0.00 W/m2
20:35 -26.4 °C -29.5 °C 1041.2 hPa West 4.8 km/h 9.7 km/h 75% 0 mm 0.00 W/m2
20:40 -26.4 °C -29.5 °C 1041.2 hPa West 4.8 km/h 9.7 km/h 75% 0 mm 0.00 W/m2
20:45 -26.4 °C -29.6 °C 1041.5 hPa West 6.4 km/h 9.7 km/h 75% 0 mm 0.00 W/m2
20:50 -26.5 °C -29.6 °C 1041.5 hPa West 4.8 km/h 9.7 km/h 75% 0 mm 0.00 W/m2
20:55 -26.4 °C -29.6 °C 1041.5 hPa West 3.2 km/h 9.7 km/h 75% 0 mm 0.00 W/m2
21:00 -26.4 °C -29.5 °C 1041.5 hPa West 3.2 km/h 9.7 km/h 75% 0 mm 0.00 W/m2
21:05 -26.4 °C -29.6 °C 1041.9 hPa West 4.8 km/h 9.7 km/h 75% 0 mm 0.00 W/m2
21:10 -26.5 °C -29.6 °C 1041.9 hPa West 4.8 km/h 6.4 km/h 75% 0 mm 0.00 W/m2
21:15 -26.6 °C -29.7 °C 1041.9 hPa West 4.8 km/h 6.4 km/h 75% 0 mm 0.00 W/m2
21:20 -26.5 °C -29.6 °C 1041.9 hPa WNW 4.8 km/h 8 km/h 75% 0 mm 0.00 W/m2
21:25 -26.5 °C -29.6 °C 1041.9 hPa WNW 3.2 km/h 8 km/h 75% 0 mm 0.00 W/m2
21:30 -26.6 °C -29.7 °C 1041.9 hPa WNW 1.6 km/h 6.4 km/h 75% 0 mm 0.00 W/m2
21:35 -26.7 °C -29.8 °C 1042.2 hPa West 4.8 km/h 6.4 km/h 75% 0 mm 0.00 W/m2
21:40 -26.8 °C -29.9 °C 1042.2 hPa West 4.8 km/h 6.4 km/h 75% 0 mm 0.00 W/m2
21:45 -26.9 °C -29.8 °C 1042.2 hPa West 4.8 km/h 6.4 km/h 76% 0 mm 0.00 W/m2
21:50 -26.8 °C -29.8 °C 1042.2 hPa West 4.8 km/h 6.4 km/h 76% 0 mm 0.00 W/m2
21:55 -26.9 °C -29.8 °C 1042.2 hPa West 4.8 km/h 6.4 km/h 76% 0 mm 0.00 W/m2
22:00 -26.8 °C -29.8 °C 1042.2 hPa West 3.2 km/h 6.4 km/h 76% 0 mm 0.00 W/m2
22:05 -26.9 °C -29.9 °C 1042.2 hPa Calm   4.8 km/h 76% 0 mm 0.00 W/m2
22:10 -26.9 °C -29.9 °C 1042.2 hPa Calm   4.8 km/h 76% 0 mm 0.00 W/m2
22:15 -27.1 °C -30 °C 1042.2 hPa Calm   4.8 km/h 76% 0 mm 0.00 W/m2
22:20 -27.2 °C -30.1 °C 1042.2 hPa Calm   4.8 km/h 76% 0 mm 0.00 W/m2
22:25 -27.1 °C -29.9 °C 1042.5 hPa Calm     77% 0 mm 0.00 W/m2
22:30 -27.1 °C -29.9 °C 1042.5 hPa Calm     77% 0 mm 0.00 W/m2
22:35 -27.1 °C -29.9 °C 1042.5 hPa West 1.6 km/h 3.2 km/h 77% 0 mm 0.00 W/m2
22:40 -26.8 °C -29.5 °C 1042.5 hPa Calm   3.2 km/h 78% 0 mm 0.00 W/m2
22:45 -26.8 °C -29.6 °C 1042.5 hPa Calm   3.2 km/h 77% 0 mm 0.00 W/m2
22:50 -26.6 °C -29.4 °C 1042.2 hPa Calm   3.2 km/h 77% 0 mm 0.00 W/m2
22:55 -26.6 °C -29.4 °C 1042.5 hPa Calm   3.2 km/h 77% 0 mm 0.00 W/m2
23:00 -26.6 °C -29.4 °C 1042.5 hPa Calm     77% 0 mm 0.00 W/m2
23:05 -26.5 °C -29.3 °C 1042.5 hPa Calm   1.6 km/h 77% 0 mm 0.00 W/m2
23:10 -26.4 °C -29.1 °C 1042.5 hPa Calm   3.2 km/h 78% 0 mm 0.00 W/m2
23:15 -26.3 °C -29.2 °C 1042.5 hPa Calm   3.2 km/h 77% 0 mm 0.00 W/m2
23:20 -26.3 °C -29.2 °C 1042.9 hPa Calm   3.2 km/h 77% 0 mm 0.00 W/m2
23:25 -26.4 °C -29.2 °C 1042.9 hPa West 1.6 km/h 3.2 km/h 77% 0 mm 0.00 W/m2
23:30 -26.5 °C -29.4 °C 1043.2 hPa West 1.6 km/h 3.2 km/h 76% 0 mm 0.00 W/m2
23:35 -26.6 °C -29.6 °C 1043.2 hPa West 1.6 km/h 4.8 km/h 76% 0 mm 0.00 W/m2
23:40 -26.7 °C -29.6 °C 1043.2 hPa West 3.2 km/h 4.8 km/h 77% 0 mm 0.00 W/m2
23:45 -26.8 °C -29.7 °C 1043.2 hPa West 1.6 km/h 3.2 km/h 77% 0 mm 0.00 W/m2
23:50 -26.9 °C -29.7 °C 1043.2 hPa Calm   3.2 km/h 77% 0 mm 0.00 W/m2
23:55 -26.9 °C -29.8 °C 1043.2 hPa West 1.6 km/h 3.2 km/h 77% 0 mm 0.00 W/m2
Bismarck, North Dakota, USA
Compliments of Weather Underground - 4 mb